PILOTS ONLINE: 309    ATC ONLINE: 38

KMEI - Key Field

Location

IATA MEI
City Meridian
Country  United States
Latitude 32° 19' 57" N
Longitude 88° 45' 6" W
Elevation 297 ft
Type Medium Airport

Runways

01/19 10003 ft / 150 ft
04/22 4599 ft / 150 ft

Weather

METAR
2014/07/23 09:11
KMEI 230911Z AUTO 00000KT 9SM R01/3500VP6000FT FEW001 19/19 A3005 RMK AO2
TAF
2014/07/23 09:15
TAF 
      AMD KMEI 230909Z 2309/2406 00000KT 4SM BR SCT003 
      TEMPO 2309/2311 2SM BR VV001 
     FM231400 15004KT P6SM SCT250 
     FM231900 34005KT P6SM VCTS SCT050CB BKN250

Outbound flights

Inbound flights